Time;durP1;ratioP1;P1;durP2;ratioP2;P2;SDS_P1;SDS_P2;PMS_P1;PMS_P2;Temp;Humidity;BMP_temperature;BMP_pressure;BME280_temperature;BME280_humidity;BME280_pressure;Samples;Min_cycle;Max_cycle;Signal;HPM_P1;HPM_P2
2021/12/29 05:02:40;;;;;;;35.67;13.75;;;;;;;0.40;100.00;98923.22;4501482;31;146112;-79
2021/12/29 05:08:25;;;;;;;39.30;14.57;;;;;;;0.74;100.00;98913.91;4476365;32;34729;-79
2021/12/29 05:11:15;;;;;;;34.75;14.32;;;;;;;1.04;100.00;98919.41;4479617;31;34966;-79
2021/12/29 05:14:01;;;;;;;31.75;13.05;;;;;;;1.92;100.00;98917.59;4464779;32;34879;-80
2021/12/29 05:16:48;;;;;;;32.30;12.27;;;;;;;2.01;100.00;98924.06;4475566;32;33670;-79
2021/12/29 05:19:34;;;;;;;34.67;13.13;;;;;;;2.39;100.00;98914.56;4487933;31;34330;-79
2021/12/29 05:22:22;;;;;;;34.15;13.65;;;;;;;2.16;100.00;98918.66;4462984;32;34584;-79
2021/12/29 05:25:08;;;;;;;27.25;12.00;;;;;;;2.81;100.00;98909.78;4478771;32;34160;-79
2021/12/29 05:27:55;;;;;;;30.70;13.15;;;;;;;3.04;96.92;98911.84;4476023;32;34157;-79
2021/12/29 05:30:47;;;;;;;27.15;11.02;;;;;;;3.17;96.21;98915.03;4477238;32;34598;-79
2021/12/29 05:33:34;;;;;;;25.20;11.90;;;;;;;2.83;95.31;98916.53;4475915;32;34854;-79
2021/12/29 05:36:21;;;;;;;29.40;11.00;;;;;;;3.20;94.84;98920.69;4478473;32;34569;-79
2021/12/29 05:39:08;;;;;;;31.98;11.65;;;;;;;3.13;94.34;98926.41;4478844;32;33807;-79
2021/12/29 05:41:54;;;;;;;34.30;11.80;;;;;;;2.57;92.94;98932.06;4476030;32;34602;-79
2021/12/29 05:44:40;;;;;;;29.80;13.32;;;;;;;1.67;97.92;98930.03;4473616;32;35881;-78
2021/12/29 05:47:26;;;;;;;26.30;11.68;;;;;;;0.81;100.00;98933.37;4478434;32;34401;-79
2021/12/29 05:50:17;;;;;;;28.70;12.20;;;;;;;1.72;99.83;98940.84;4475776;32;34696;-79
2021/12/29 05:53:03;;;;;;;30.27;13.05;;;;;;;2.36;96.59;98933.19;4486133;32;35128;-79
2021/12/29 05:55:50;;;;;;;35.00;14.48;;;;;;;2.09;96.02;98942.44;4477636;32;33893;-78
2021/12/29 05:58:37;;;;;;;37.15;15.68;;;;;;;1.18;98.46;98941.31;4473373;32;34483;-78
2021/12/29 06:01:23;;;;;;;40.67;16.00;;;;;;;1.15;100.00;98941.03;4471750;32;34256;-78
2021/12/29 06:04:10;;;;;;;48.50;18.25;;;;;;;0.98;100.00;98930.47;4482228;31;34780;-78
2021/12/29 06:06:57;;;;;;;64.18;18.60;;;;;;;0.39;100.00;98942.34;4475338;32;35674;-78
2021/12/29 06:09:44;;;;;;;52.05;16.85;;;;;;;0.31;100.00;98950.91;4472831;32;35470;-78
2021/12/29 06:12:30;;;;;;;40.67;15.85;;;;;;;0.97;100.00;98951.25;4469207;32;35095;-78
2021/12/29 06:15:17;;;;;;;35.83;13.88;;;;;;;1.44;100.00;98938.66;4465841;32;35723;-78
2021/12/29 06:18:04;;;;;;;57.28;17.30;;;;;;;0.92;100.00;98943.13;4466620;32;34966;-78
2021/12/29 06:20:50;;;;;;;38.92;15.38;;;;;;;0.52;100.00;98949.97;4454389;32;34446;-78
2021/12/29 06:23:36;;;;;;;36.80;13.82;;;;;;;0.58;100.00;98953.50;4465500;32;33792;-78
2021/12/29 06:26:23;;;;;;;36.20;13.38;;;;;;;0.46;100.00;98956.41;4471537;32;34283;-78
2021/12/29 06:29:10;;;;;;;42.55;14.40;;;;;;;0.92;100.00;98959.31;4469957;32;35005;-78
2021/12/29 06:31:56;;;;;;;39.85;13.80;;;;;;;0.32;100.00;98950.66;4466784;32;35080;-78
2021/12/29 06:34:43;;;;;;;33.92;13.45;;;;;;;0.53;100.00;98956.16;4471881;32;34820;-78
2021/12/29 06:37:29;;;;;;;34.28;11.48;;;;;;;0.52;100.00;98949.16;4454494;32;34737;-78
2021/12/29 06:40:16;;;;;;;33.58;13.65;;;;;;;0.73;100.00;98950.06;4466088;32;34956;-78
2021/12/29 06:43:03;;;;;;;41.95;15.43;;;;;;;0.20;100.00;98950.06;4472395;32;35374;-78
2021/12/29 06:45:49;;;;;;;43.47;14.40;;;;;;;0.21;100.00;98960.56;4465320;32;34273;-78
2021/12/29 06:48:36;;;;;;;36.10;13.55;;;;;;;0.53;100.00;98966.94;4472790;32;34110;-78
2021/12/29 06:51:23;;;;;;;36.53;13.07;;;;;;;0.40;100.00;98973.63;4462126;32;34474;-78
2021/12/29 06:54:10;;;;;;;41.42;13.52;;;;;;;-0.13;100.00;98986.19;4475972;32;34599;-78
2021/12/29 06:56:56;;;;;;;51.08;16.33;;;;;;;-0.01;100.00;98986.81;4477610;32;35093;-78
2021/12/29 06:59:43;;;;;;;36.60;13.48;;;;;;;-0.09;100.00;98992.66;4465941;32;34245;-78
2021/12/29 07:02:29;;;;;;;39.08;14.38;;;;;;;0.41;100.00;98986.81;4474307;32;33951;-78
2021/12/29 07:05:17;;;;;;;41.75;14.23;;;;;;;0.06;100.00;98983.88;4475047;32;34654;-78
2021/12/29 07:08:04;;;;;;;38.92;15.88;;;;;;;0.35;100.00;98985.19;4465013;32;34165;-78
2021/12/29 07:10:50;;;;;;;48.08;15.50;;;;;;;0.03;100.00;98985.25;4475563;32;34643;-78
2021/12/29 08:29:10;;;;;;;53.92;18.20;;;;;;;-0.69;100.00;99069.84;4500010;31;138423;-80
2021/12/29 08:31:57;;;;;;;57.13;18.33;;;;;;;-0.17;100.00;99066.66;4475982;32;33556;-81
2021/12/29 08:34:43;;;;;;;58.50;20.40;;;;;;;0.56;100.00;99071.56;4463654;32;35230;-79
2021/12/29 08:37:35;;;;;;;;;;;;;;;0.89;100.00;99073.94;4478276;32;37567;-80
2021/12/29 08:40:21;;;;;;;46.65;15.77;;;;;;;1.41;100.00;99076.88;4483334;31;34798;-79
2021/12/29 08:43:07;;;;;;;50.08;15.68;;;;;;;0.48;100.00;99072.03;4475215;31;33806;-80
2021/12/29 08:45:54;;;;;;;48.87;16.37;;;;;;;0.87;100.00;99086.87;4472514;32;34809;-80
2021/12/29 08:48:42;;;;;;;68.35;22.52;;;;;;;1.14;100.00;99080.53;4477406;32;37407;-79
2021/12/29 08:51:28;;;;;;;42.75;15.63;;;;;;;0.55;100.00;99088.81;4478255;32;33088;-79
2021/12/29 08:54:15;;;;;;;44.97;16.98;;;;;;;1.07;100.00;99090.75;4478062;31;33038;-79
2021/12/29 08:57:01;;;;;;;48.83;18.70;;;;;;;0.77;100.00;99097.59;4474605;32;34372;-79
2021/12/29 08:59:48;;;;;;;45.85;17.60;;;;;;;0.96;100.00;99089.06;4482406;31;34854;-78
2021/12/29 09:02:34;;;;;;;41.85;16.40;;;;;;;1.55;100.00;99096.91;4478537;31;34475;-78
2021/12/29 09:05:21;;;;;;;36.10;13.52;;;;;;;1.60;100.00;99096.13;4458572;31;33703;-78
2021/12/29 09:08:08;;;;;;;43.05;16.25;;;;;;;1.57;100.00;99084.75;4480739;32;34271;-78
2021/12/29 09:10:55;;;;;;;40.22;16.52;;;;;;;1.26;100.00;99086.53;4476912;31;34595;-82
2021/12/29 09:13:41;;;;;;;46.30;22.15;;;;;;;1.89;100.00;99085.66;4478176;31;34925;-82
2021/12/29 09:16:28;;;;;;;48.38;19.50;;;;;;;1.97;100.00;99082.44;4484646;32;35153;-82
2021/12/29 09:19:14;;;;;;;40.83;15.70;;;;;;;1.87;100.00;99083.19;4475768;32;34293;-82
2021/12/29 09:22:01;;;;;;;44.45;21.17;;;;;;;1.65;100.00;99072.63;4483509;32;34543;-82
2021/12/29 09:24:47;;;;;;;37.17;14.07;;;;;;;1.48;100.00;99070.16;4481040;31;34165;-82
2021/12/29 09:27:34;;;;;;;30.90;13.35;;;;;;;2.24;100.00;99072.16;4474085;32;34860;-82
2021/12/29 09:30:22;;;;;;;35.38;15.00;;;;;;;2.93;96.45;99067.22;4477902;31;34689;-82
2021/12/29 09:33:09;;;;;;;32.05;14.43;;;;;;;1.65;100.00;99061.84;4482122;31;35004;-82
2021/12/29 09:36:01;;;;;;;35.17;15.05;;;;;;;2.02;100.00;99058.09;4475026;32;33977;-82
2021/12/29 09:38:47;;;;;;;31.17;13.98;;;;;;;2.52;97.71;99051.06;4477534;31;33963;-81
2021/12/29 09:41:33;;;;;;;28.50;13.70;;;;;;;3.11;95.44;99050.41;4466237;31;35981;-82
2021/12/29 09:44:24;;;;;;;28.33;13.40;;;;;;;3.21;94.37;99040.59;4473248;31;34800;-81
2021/12/29 09:47:11;;;;;;;27.85;13.38;;;;;;;2.89;92.75;99041.81;4462791;32;35334;-82
2021/12/29 09:49:57;;;;;;;26.15;12.80;;;;;;;3.76;91.79;99036.00;4469984;32;33852;-82
2021/12/29 09:52:44;;;;;;;31.50;15.43;;;;;;;3.62;92.78;99026.88;4462759;32;35210;-81
2021/12/29 09:55:30;;;;;;;30.50;15.73;;;;;;;2.64;97.29;99045.38;4464365;32;35882;-81
2021/12/29 09:58:18;;;;;;;33.85;17.02;;;;;;;3.14;95.26;99038.22;4468181;31;34566;-82
2021/12/29 10:01:07;;;;;;;34.50;16.48;;;;;;;2.89;95.86;99028.28;4468291;31;34740;-81
2021/12/29 10:03:53;;;;;;;31.33;15.35;;;;;;;3.23;94.04;99033.03;4464239;32;34572;-82
2021/12/29 10:06:40;;;;;;;31.05;15.27;;;;;;;3.71;92.32;99028.72;4464143;32;35030;-82
2021/12/29 10:09:27;;;;;;;29.00;14.13;;;;;;;3.11;94.93;99025.22;4465725;31;34556;-82
2021/12/29 10:12:21;;;;;;;29.90;15.77;;;;;;;3.97;91.13;99026.63;4472550;31;35073;-82
2021/12/29 10:15:08;;;;;;;31.75;16.70;;;;;;;4.33;88.65;99023.66;4463683;32;35159;-83
2021/12/29 10:18:22;;;;;;;33.80;15.13;;;;;;;3.53;93.28;99027.47;4475237;31;35066;-83
2021/12/29 10:21:16;;;;;;;32.30;16.60;;;;;;;4.35;89.26;99021.44;4463491;32;34463;-83
2021/12/29 10:24:03;;;;;;;42.75;21.55;;;;;;;4.46;86.99;99028.38;4463959;32;33841;-84
2021/12/29 10:26:57;;;;;;;37.78;19.12;;;;;;;4.88;86.13;99035.03;4474940;31;35638;-84
2021/12/29 10:29:43;;;;;;;29.05;14.98;;;;;;;4.97;85.08;99027.88;4475699;31;34990;-84
2021/12/29 10:32:30;;;;;;;24.70;13.65;;;;;;;5.05;84.22;99021.00;4462234;32;34538;-84
2021/12/29 10:35:29;;;;;;;24.60;13.48;;;;;;;4.90;83.86;99032.84;4462104;32;33700;-83
2021/12/29 10:38:22;;;;;;;28.67;14.45;;;;;;;4.46;87.21;99028.38;4467636;32;34575;-83
2021/12/29 10:41:09;;;;;;;22.90;11.77;;;;;;;4.86;84.58;99036.41;4465388;32;34894;-85
2021/12/29 10:44:04;;;;;;;28.92;13.95;;;;;;;4.46;87.95;99031.09;4464054;32;34515;-83
2021/12/29 10:46:56;;;;;;;25.83;14.10;;;;;;;4.95;85.30;99030.09;4453907;32;36320;-83
2021/12/29 10:49:55;;;;;;;29.73;15.20;;;;;;;4.71;84.11;99035.47;4465145;32;34270;-83
2021/12/29 10:52:46;;;;;;;36.60;18.12;;;;;;;4.86;84.22;99036.41;4465457;32;34260;-83
2021/12/29 10:55:35;;;;;;;31.62;16.00;;;;;;;4.84;84.06;99028.56;4466483;32;33887;-83
2021/12/29 10:58:24;;;;;;;30.12;16.12;;;;;;;4.72;84.53;99025.44;4464945;32;34001;-83
2021/12/29 11:01:12;;;;;;;31.10;16.40;;;;;;;4.56;85.44;99040.25;4456150;31;34678;-82
2021/12/29 11:03:59;;;;;;;38.17;20.25;;;;;;;4.61;84.96;99042.91;4464377;32;34999;-82
2021/12/29 11:06:47;;;;;;;46.58;23.08;;;;;;;4.67;85.42;99033.66;4464743;32;34605;-82
2021/12/29 11:09:36;;;;;;;58.53;24.67;;;;;;;4.69;85.41;99037.66;4472667;32;33843;-83
2021/12/29 11:12:25;;;;;;;56.72;26.80;;;;;;;4.63;86.89;99038.00;4451899;32;34571;-83
2021/12/29 11:15:41;;;;;;;55.33;27.77;;;;;;;4.23;87.68;99034.56;4467484;32;35457;-83
2021/12/29 11:18:40;;;;;;;54.67;25.70;;;;;;;4.63;85.48;99038.00;4452960;32;33572;-83
2021/12/29 11:21:35;;;;;;;52.65;25.62;;;;;;;4.76;85.05;99036.53;4463667;32;33759;-83
2021/12/29 11:24:26;;;;;;;44.60;22.25;;;;;;;4.05;88.98;99033.37;4475163;32;34638;-83
2021/12/29 11:27:16;;;;;;;45.00;21.75;;;;;;;4.45;86.78;99032.22;4472721;32;35930;-83
2021/12/29 11:30:09;;;;;;;42.70;20.77;;;;;;;3.93;89.15;99035.63;4463897;32;34817;-83
2021/12/29 11:33:09;;;;;;;48.87;22.70;;;;;;;3.62;92.35;99035.81;4462608;32;35104;-83
2021/12/29 11:35:56;;;;;;;48.17;21.73;;;;;;;2.82;95.16;99041.28;4473706;32;33377;-83
2021/12/29 11:38:42;;;;;;;45.55;20.50;;;;;;;3.66;92.03;99034.16;4451946;32;34934;-83
2021/12/29 11:41:29;;;;;;;47.30;21.20;;;;;;;3.93;89.83;99041.84;4471239;32;34264;-83
2021/12/29 11:44:16;;;;;;;46.72;21.00;;;;;;;4.26;87.57;99036.72;4459369;32;32881;-82
2021/12/29 11:47:04;;;;;;;44.95;20.40;;;;;;;4.23;86.37;99042.69;4458216;32;36730;-83
2021/12/29 11:49:50;;;;;;;40.72;19.58;;;;;;;4.30;85.89;99045.91;4449926;32;34981;-83
2021/12/29 11:53:08;;;;;;;41.40;18.48;;;;;;;4.36;85.54;99050.19;4472242;32;34302;-83
2021/12/29 11:56:14;;;;;;;39.45;17.95;;;;;;;2.82;92.23;99061.03;4460236;32;34464;-83
2021/12/29 11:59:04;;;;;;;39.00;18.30;;;;;;;3.44;90.44;99050.78;4473039;32;34143;-83
2021/12/29 12:02:09;;;;;;;38.83;16.77;;;;;;;2.91;92.54;99062.09;4461917;32;34856;-83
2021/12/29 12:05:04;;;;;;;37.95;18.62;;;;;;;3.47;91.31;99061.09;4460190;32;34559;-83
2021/12/29 12:07:50;;;;;;;36.33;18.15;;;;;;;3.15;91.17;99064.19;4470626;32;34182;-84
2021/12/29 12:10:38;;;;;;;42.80;21.27;;;;;;;3.67;91.66;99067.47;4472624;32;33399;-83
2021/12/29 12:13:25;;;;;;;43.83;19.52;;;;;;;3.37;91.49;99063.84;4472733;32;34941;-84
2021/12/29 12:16:13;;;;;;;45.30;20.67;;;;;;;3.77;90.06;99070.13;4460849;32;34509;-83
2021/12/29 12:19:00;;;;;;;51.65;22.83;;;;;;;3.30;93.35;99074.13;4459158;32;34205;-83
2021/12/29 12:21:47;;;;;;;53.42;24.37;;;;;;;2.91;97.42;99072.13;4461110;32;34576;-83
2021/12/29 12:24:37;;;;;;;54.47;23.67;;;;;;;3.31;95.20;99075.78;4453471;31;34908;-83
2021/12/29 12:27:34;;;;;;;58.33;25.17;;;;;;;2.77;99.47;99077.28;4465400;31;35176;-83
2021/12/29 12:30:24;;;;;;;49.45;22.27;;;;;;;2.16;100.00;99070.03;4463867;32;35039;-83
2021/12/29 12:33:14;;;;;;;49.03;21.47;;;;;;;3.18;97.49;99068.22;4461854;32;35312;-83
2021/12/29 12:36:06;;;;;;;46.05;19.37;;;;;;;3.80;94.30;99067.66;4462634;32;35881;-83
2021/12/29 12:38:53;;;;;;;49.35;22.15;;;;;;;4.08;90.97;99069.94;4470781;32;34164;-84
2021/12/29 12:41:41;;;;;;;48.78;22.52;;;;;;;3.55;94.20;99074.03;4463423;32;35171;-83
2021/12/29 12:44:35;;;;;;;47.83;20.77;;;;;;;3.75;94.97;99072.31;4466492;32;35150;-83
2021/12/29 12:47:21;;;;;;;45.92;19.85;;;;;;;3.58;94.90;99076.19;4466570;32;35553;-83
2021/12/29 12:50:08;;;;;;;40.45;19.35;;;;;;;3.28;95.76;99082.56;4456453;32;34881;-83
2021/12/29 12:52:56;;;;;;;46.10;19.85;;;;;;;3.91;94.45;99073.84;4465567;32;35110;-83
2021/12/29 12:55:44;;;;;;;37.45;19.42;;;;;;;3.34;96.72;99083.34;4451945;32;34580;-83
2021/12/29 12:58:39;;;;;;;38.78;18.95;;;;;;;3.82;95.25;99091.78;4473309;32;35932;-82
2021/12/29 13:01:26;;;;;;;36.13;17.87;;;;;;;3.98;93.89;99085.16;4461839;32;34504;-83
2021/12/29 13:04:16;;;;;;;38.75;18.00;;;;;;;3.32;95.03;99093.63;4445136;32;34759;-82
2021/12/29 13:07:02;;;;;;;36.72;17.05;;;;;;;3.70;94.61;99092.13;4463833;31;34468;-83
2021/12/29 13:09:51;;;;;;;41.53;19.45;;;;;;;3.28;96.79;99098.00;4474508;32;36013;-83
2021/12/29 13:12:40;;;;;;;45.65;19.67;;;;;;;3.15;96.95;99108.28;4478310;32;35092;-82
2021/12/29 13:15:30;;;;;;;43.45;18.42;;;;;;;2.97;99.74;99100.78;4467912;32;35072;-83
2021/12/29 13:18:17;;;;;;;54.53;19.65;;;;;;;2.79;100.00;99104.03;4463277;32;34256;-82
2021/12/29 13:21:15;;;;;;;50.75;23.02;;;;;;;2.99;98.99;99109.44;4466082;32;35885;-83
2021/12/29 13:24:07;;;;;;;55.30;21.05;;;;;;;2.95;100.00;99113.75;4464306;32;33417;-82
2021/12/29 13:26:55;;;;;;;;;;;;;;;3.04;98.50;99122.94;4469021;32;34196;-83
2021/12/29 13:29:41;;;;;;;53.83;21.30;;;;;;;3.24;98.01;99126.69;4466841;32;34428;-82
2021/12/29 13:32:27;;;;;;;46.95;19.92;;;;;;;3.58;96.10;99118.72;4465175;32;34631;-83
2021/12/29 13:35:14;;;;;;;49.30;21.20;;;;;;;4.03;94.19;99123.09;4467279;32;34393;-83
2021/12/29 13:38:06;;;;;;;53.15;22.60;;;;;;;3.89;95.10;99127.50;4463290;32;35205;-82
2021/12/29 13:40:56;;;;;;;53.67;23.15;;;;;;;2.90;99.56;99122.72;4450355;32;34499;-83
2021/12/29 13:43:45;;;;;;;52.15;22.25;;;;;;;2.33;100.00;99134.63;4461561;32;34918;-83
2021/12/29 13:46:33;;;;;;;53.25;23.73;;;;;;;2.76;100.00;99137.06;4452897;32;34132;-82
2021/12/29 13:49:22;;;;;;;49.60;22.05;;;;;;;2.96;98.82;99145.19;4464832;32;33823;-82
2021/12/29 13:52:11;;;;;;;58.50;23.35;;;;;;;3.53;96.69;99135.81;4469088;32;34136;-83
2021/12/29 13:54:57;;;;;;;51.75;22.17;;;;;;;3.36;98.38;99152.41;4478947;32;35195;-83
2021/12/29 13:57:43;;;;;;;54.47;23.85;;;;;;;2.40;100.00;99146.00;4478221;32;34548;-83
2021/12/29 14:00:31;;;;;;;54.53;23.90;;;;;;;2.38;100.00;99152.75;4465916;32;35092;-83
2021/12/29 14:03:17;;;;;;;54.05;23.27;;;;;;;2.77;100.00;99160.34;4472858;32;35615;-83
2021/12/29 14:06:06;;;;;;;55.25;25.12;;;;;;;2.60;100.00;99161.41;4462279;32;35866;-83
2021/12/29 14:08:54;;;;;;;55.80;25.40;;;;;;;2.73;100.00;99170.87;4453459;32;34547;-83
2021/12/29 14:11:41;;;;;;;67.68;29.17;;;;;;;2.28;100.00;99158.12;4463782;32;34801;-83
2021/12/29 14:14:27;;;;;;;52.47;23.33;;;;;;;1.84;100.00;99153.97;4477872;32;34240;-83
2021/12/29 14:17:21;;;;;;;53.80;24.30;;;;;;;1.78;100.00;99172.06;4466033;32;36007;-83
2021/12/29 14:20:11;;;;;;;48.47;21.67;;;;;;;2.02;100.00;99171.59;4461587;32;34205;-83
2021/12/29 14:23:02;;;;;;;48.35;22.85;;;;;;;2.59;100.00;99177.91;4455144;32;33860;-83
2021/12/29 14:25:49;;;;;;;43.03;20.35;;;;;;;1.90;100.00;99184.53;4462432;32;34649;-83
2021/12/29 14:28:35;;;;;;;40.12;20.83;;;;;;;2.57;100.00;99183.59;4472164;32;35926;-83
2021/12/29 14:31:26;;;;;;;44.00;21.05;;;;;;;2.92;100.00;99192.78;4455148;32;34229;-84
2021/12/29 14:34:14;;;;;;;50.80;21.50;;;;;;;2.19;100.00;99195.69;4461269;32;34322;-84
2021/12/29 14:37:00;;;;;;;45.10;20.20;;;;;;;2.24;100.00;99201.91;4465175;32;33558;-85
2021/12/29 14:39:47;;;;;;;51.30;22.27;;;;;;;2.72;100.00;99195.50;4467509;32;34984;-83
2021/12/29 14:42:40;;;;;;;48.58;23.02;;;;;;;1.80;100.00;99193.41;4464793;32;34569;-84
2021/12/29 14:45:34;;;;;;;51.17;23.77;;;;;;;1.77;100.00;99202.03;4465971;32;35112;-84
2021/12/29 14:48:20;;;;;;;56.85;24.17;;;;;;;2.51;100.00;99206.31;4465685;32;34480;-83
2021/12/29 14:51:07;;;;;;;50.15;24.17;;;;;;;1.66;100.00;99201.19;4467953;32;34800;-84
2021/12/29 14:53:55;;;;;;;55.97;26.87;;;;;;;1.66;100.00;99214.69;4466763;32;35137;-84
2021/12/29 14:56:41;;;;;;;63.72;29.48;;;;;;;1.62;100.00;99224.37;4463817;32;34017;-84
2021/12/29 14:59:34;;;;;;;54.83;24.92;;;;;;;1.56;100.00;99230.81;4464690;32;34249;-84
2021/12/29 15:02:20;;;;;;;56.25;23.70;;;;;;;1.76;100.00;99236.31;4465586;32;35935;-84
2021/12/29 15:05:18;;;;;;;72.43;32.85;;;;;;;2.32;100.00;99229.53;4464175;32;34454;-84
2021/12/29 15:08:04;;;;;;;65.90;32.10;;;;;;;2.72;100.00;99233.38;4463243;32;35540;-84
2021/12/29 15:10:56;;;;;;;63.03;28.52;;;;;;;1.92;100.00;99234.53;4461018;32;34119;-84
2021/12/29 15:13:44;;;;;;;66.18;28.35;;;;;;;2.07;100.00;99230.25;4452636;32;35022;-84
2021/12/29 15:16:31;;;;;;;58.55;26.33;;;;;;;2.54;100.00;99242.81;4455332;32;35039;-83
2021/12/29 15:19:17;;;;;;;64.25;29.83;;;;;;;2.60;100.00;99247.97;4460311;32;33840;-84
2021/12/29 15:22:07;;;;;;;76.72;35.97;;;;;;;2.69;100.00;99240.94;4463823;32;35458;-80
2021/12/29 15:24:56;;;;;;;70.00;28.15;;;;;;;1.89;100.00;99253.97;4430487;32;34609;-80
2021/12/29 16:13:42;;;;;;;70.37;29.00;;;;;;;2.03;100.00;99286.72;4663737;27;20530;-74
2021/12/29 16:16:53;;;;;;;75.53;30.52;;;;;;;2.08;100.00;99284.06;4379204;31;146820;-74
2021/12/29 16:19:39;;;;;;;77.45;30.20;;;;;;;2.34;100.00;99286.84;4407758;32;34730;-75
2021/12/29 16:22:34;;;;;;;79.35;30.48;;;;;;;1.89;100.00;99301.78;4432722;31;35561;-74
2021/12/29 16:25:21;;;;;;;83.93;30.60;;;;;;;1.94;100.00;99309.94;4460341;31;35704;-74
2021/12/29 16:28:08;;;;;;;82.47;30.77;;;;;;;1.37;100.00;99313.31;4462420;32;34412;-74
2021/12/29 16:30:54;;;;;;;87.62;29.98;;;;;;;1.13;100.00;99310.97;4471621;31;32859;-74
2021/12/29 17:12:09;;;;;;;81.68;29.37;;;;;;;2.58;100.00;99358.31;4911762;26;20239;-71
2021/12/29 17:14:56;;;;;;;72.55;27.95;;;;;;;3.32;99.73;99351.69;4427635;32;34708;-73
2021/12/29 17:17:43;;;;;;;94.03;31.15;;;;;;;3.68;97.79;99356.31;4284124;32;35515;-73
2021/12/29 17:20:30;;;;;;;88.03;32.38;;;;;;;2.90;100.00;99355.44;4420925;32;34578;-72
2021/12/29 17:23:16;;;;;;;89.53;29.65;;;;;;;2.85;100.00;99357.31;4413990;32;34004;-73
2021/12/29 17:26:09;;;;;;;104.70;33.43;;;;;;;2.02;100.00;99350.78;4727089;26;35830;31
2021/12/29 17:28:56;;;;;;;128.43;35.45;;;;;;;1.27;100.00;99365.34;4383737;32;34252;-83
2021/12/29 17:31:46;;;;;;;112.35;35.78;;;;;;;1.21;100.00;99377.97;4389557;32;35572;-82
2021/12/29 17:34:35;;;;;;;126.60;37.85;;;;;;;1.10;100.00;99392.44;4390426;32;35262;-83
2021/12/29 17:37:22;;;;;;;105.30;34.03;;;;;;;0.86;100.00;99395.44;4389563;32;33974;-83
2021/12/29 17:40:13;;;;;;;110.03;32.92;;;;;;;0.94;100.00;99393.34;4389875;32;34334;-83
2021/12/29 17:42:59;;;;;;;126.28;37.85;;;;;;;1.11;100.00;99392.19;4398586;32;36017;-83
2021/12/29 17:45:46;;;;;;;130.07;38.17;;;;;;;0.95;100.00;99389.59;4398596;32;35139;-83
2021/12/29 17:48:33;;;;;;;130.25;38.15;;;;;;;0.84;100.00;99394.88;4400454;32;34090;-83
2021/12/29 17:51:20;;;;;;;116.78;36.97;;;;;;;1.34;100.00;99382.97;4387348;32;34620;-83
2021/12/29 17:54:06;;;;;;;110.80;36.72;;;;;;;1.83;100.00;99383.87;4388245;32;35642;-85
2021/12/29 17:56:54;;;;;;;119.75;38.10;;;;;;;2.17;100.00;99392.47;4388354;32;34203;-85
2021/12/29 17:59:40;;;;;;;123.75;39.13;;;;;;;1.19;100.00;99399.00;4388968;32;34372;-84
2021/12/29 18:02:26;;;;;;;109.87;35.90;;;;;;;0.97;100.00;99400.91;4397179;32;34383;-85
2021/12/29 18:05:14;;;;;;;129.20;38.83;;;;;;;1.41;100.00;99398.13;4390587;32;35592;-85
2021/12/29 18:08:00;;;;;;;126.03;40.67;;;;;;;1.59;100.00;99397.72;4397654;32;35276;-85
2021/12/29 18:10:47;;;;;;;112.50;34.15;;;;;;;1.94;100.00;99401.78;4399699;32;34336;-84
2021/12/29 18:13:34;;;;;;;114.53;35.55;;;;;;;1.65;100.00;99407.53;4387709;32;34530;-86
2021/12/29 18:16:21;;;;;;;105.50;35.58;;;;;;;1.92;100.00;99414.75;4391048;32;34921;-85
2021/12/29 18:19:10;;;;;;;99.62;33.97;;;;;;;1.83;100.00;99410.91;4397118;32;33165;-84
2021/12/29 18:21:57;;;;;;;95.40;33.63;;;;;;;1.57;100.00;99408.81;4390008;32;35628;-85
2021/12/29 18:24:45;;;;;;;104.82;35.38;;;;;;;1.44;100.00;99419.22;4378933;32;35429;-84
2021/12/29 18:27:33;;;;;;;105.82;36.45;;;;;;;1.06;100.00;99423.72;4387367;32;35659;-83
2021/12/29 18:30:20;;;;;;;100.12;32.55;;;;;;;1.06;100.00;99432.59;4387613;32;34265;-84
2021/12/29 18:33:07;;;;;;;103.87;35.78;;;;;;;1.26;100.00;99434.72;4400609;32;33222;-83
2021/12/29 18:35:55;;;;;;;95.87;33.40;;;;;;;1.33;100.00;99438.00;4387737;32;34400;-83
2021/12/29 18:38:42;;;;;;;98.12;34.17;;;;;;;1.44;100.00;99446.22;4386962;32;34939;-82
2021/12/29 18:41:30;;;;;;;86.90;30.92;;;;;;;1.10;100.00;99452.59;4396762;32;35295;-84
2021/12/29 18:44:17;;;;;;;96.53;33.13;;;;;;;1.41;100.00;99449.41;4398312;32;34247;-84
2021/12/29 18:47:05;;;;;;;102.82;33.05;;;;;;;1.41;100.00;99447.53;4387830;32;35059;-85
2021/12/29 18:49:52;;;;;;;115.18;38.33;;;;;;;1.21;100.00;99448.16;4387863;32;34475;-84
2021/12/29 18:52:39;;;;;;;108.97;32.67;;;;;;;1.22;100.00;99447.06;4395646;32;34297;-86
2021/12/29 18:55:27;;;;;;;101.82;31.80;;;;;;;1.34;100.00;99446.94;4398304;32;33998;-83
2021/12/29 18:58:14;;;;;;;121.78;36.92;;;;;;;1.46;100.00;99438.69;4386485;32;34577;-84
2021/12/29 19:01:00;;;;;;;119.65;35.03;;;;;;;1.30;100.00;99449.31;4388202;32;34576;-83
2021/12/29 19:03:47;;;;;;;112.90;33.05;;;;;;;1.27;100.00;99452.50;4396687;32;34189;-82
2021/12/29 19:06:34;;;;;;;116.28;34.95;;;;;;;1.51;100.00;99452.22;4386104;32;35038;-83
2021/12/29 19:09:20;;;;;;;127.95;35.28;;;;;;;1.68;100.00;99449.38;4387786;32;34715;-82
2021/12/29 19:12:07;;;;;;;120.30;35.65;;;;;;;1.03;100.00;99456.59;4394098;32;35906;-81
2021/12/29 19:14:54;;;;;;;116.78;33.20;;;;;;;1.07;100.00;99452.31;4384896;32;35125;-83
2021/12/29 19:17:42;;;;;;;130.52;38.08;;;;;;;1.67;100.00;99459.37;4387055;32;34854;-82
2021/12/29 19:20:33;;;;;;;117.22;34.72;;;;;;;1.12;100.00;99471.25;4385796;32;34512;-83
2021/12/29 19:23:20;;;;;;;145.65;38.20;;;;;;;1.56;100.00;99463.06;4387339;32;34603;-82
2021/12/29 19:26:07;;;;;;;104.15;33.28;;;;;;;1.03;100.00;99467.37;4374721;32;34901;-83
2021/12/29 19:28:53;;;;;;;128.82;37.72;;;;;;;1.24;100.00;99463.00;4401709;32;35099;-83
2021/12/29 19:31:45;;;;;;;116.22;34.70;;;;;;;0.95;100.00;99460.53;4413731;32;34229;-82
2021/12/29 19:34:33;;;;;;;;;;;;;;;1.04;100.00;99459.03;4413171;32;34647;-82
2021/12/29 19:37:20;;;;;;;105.45;32.40;;;;;;;1.30;100.00;99451.19;4402726;32;34238;-82
2021/12/29 19:40:08;;;;;;;123.40;35.80;;;;;;;1.32;100.00;99444.47;4391940;32;34258;-84
2021/12/29 19:42:58;;;;;;;112.35;33.10;;;;;;;0.99;100.00;99452.75;4412927;32;34634;-83
2021/12/29 19:45:45;;;;;;;107.68;32.00;;;;;;;0.89;100.00;99456.97;4415254;32;34739;-82
2021/12/29 19:48:33;;;;;;;120.60;37.13;;;;;;;1.01;100.00;99461.41;4393332;32;34172;-83
2021/12/29 19:51:19;;;;;;;119.75;37.92;;;;;;;0.82;100.00;99461.72;4380681;32;34064;-82
2021/12/29 19:54:06;;;;;;;102.25;29.17;;;;;;;0.85;100.00;99469.34;4393210;32;35188;-83
2021/12/29 19:56:52;;;;;;;106.45;35.85;;;;;;;1.02;100.00;99473.81;4403164;32;34429;-83
2021/12/29 19:59:39;;;;;;;133.25;38.58;;;;;;;0.85;100.00;99480.13;4413353;32;34554;-82
2021/12/29 20:02:26;;;;;;;141.70;39.97;;;;;;;0.90;100.00;99485.56;4399080;32;34273;-82
2021/12/29 20:05:17;;;;;;;107.63;33.22;;;;;;;0.88;100.00;99484.19;4411930;32;35737;-83
2021/12/29 20:08:12;;;;;;;117.70;34.38;;;;;;;1.09;100.00;99485.25;4399240;32;34621;-83
2021/12/29 20:11:00;;;;;;;103.78;31.25;;;;;;;0.92;100.00;99493.41;4405843;32;35359;-82
2021/12/29 20:13:46;;;;;;;117.43;34.53;;;;;;;0.89;100.00;99497.44;4391390;32;34975;-82
2021/12/29 20:16:32;;;;;;;109.80;30.25;;;;;;;0.84;100.00;99494.66;4402551;32;34089;-82
2021/12/29 20:19:19;;;;;;;113.55;31.35;;;;;;;0.92;100.00;99492.63;4404372;32;35039;-82
2021/12/29 20:22:06;;;;;;;118.47;32.17;;;;;;;0.96;100.00;99496.44;4415320;32;34542;-83
2021/12/29 20:24:52;;;;;;;112.70;32.75;;;;;;;0.83;100.00;99494.94;4412811;32;35019;-82
2021/12/29 20:27:39;;;;;;;106.90;28.17;;;;;;;0.78;100.00;99498.37;4412580;32;34183;-81
2021/12/29 20:30:26;;;;;;;120.18;35.38;;;;;;;1.01;100.00;99499.19;4400364;32;37396;-82
2021/12/29 20:33:13;;;;;;;101.40;29.00;;;;;;;0.99;100.00;99499.44;4415990;32;35018;-82
2021/12/29 20:35:59;;;;;;;102.15;29.02;;;;;;;1.16;100.00;99503.94;4411349;32;34105;-82
2021/12/29 20:38:46;;;;;;;120.18;30.55;;;;;;;1.02;100.00;99498.09;4408995;32;36412;-82
2021/12/29 20:41:33;;;;;;;126.60;33.50;;;;;;;1.06;100.00;99507.34;4398689;32;35992;-82